createdAt,value
2023-02-05T00:01:50.820Z,1.58
2023-02-05T00:04:53.506Z,2.60
2023-02-05T00:07:55.414Z,2.27
2023-02-05T00:10:57.419Z,5.25
2023-02-05T00:13:59.453Z,2.80
2023-02-05T00:17:04.184Z,2.92
2023-02-05T00:20:06.662Z,7.03
2023-02-05T00:23:08.581Z,4.30
2023-02-05T00:26:11.111Z,4.35
2023-02-05T00:29:13.401Z,5.53
2023-02-05T00:32:15.313Z,3.00
2023-02-05T00:35:17.202Z,1.42
2023-02-05T00:38:19.096Z,3.73
2023-02-05T00:41:21.015Z,4.57
2023-02-05T00:44:22.977Z,2.72
2023-02-05T00:47:24.825Z,2.28
2023-02-05T00:50:26.848Z,2.55
2023-02-05T00:53:29.136Z,2.27
2023-02-05T00:56:31.059Z,3.45
2023-02-05T00:59:33.222Z,4.07
2023-02-05T01:02:35.112Z,4.30
2023-02-05T01:05:38.337Z,3.85
2023-02-05T01:08:40.565Z,3.70
2023-02-05T01:11:42.793Z,3.78
2023-02-05T01:14:44.680Z,4.78
2023-02-05T01:17:46.801Z,3.33
2023-02-05T01:20:48.950Z,3.38
2023-02-05T01:23:52.625Z,2.43
2023-02-05T01:26:56.190Z,2.97
2023-02-05T01:29:58.096Z,4.65
2023-02-05T01:33:00.286Z,10.40
2023-02-05T01:36:02.226Z,5.72
2023-02-05T01:39:04.239Z,2.73
2023-02-05T01:42:18.026Z,4.50
2023-02-05T01:45:22.900Z,4.75
2023-02-05T01:48:29.726Z,5.95
2023-02-05T01:51:34.570Z,6.85
2023-02-05T01:54:44.873Z,5.20
2023-02-05T01:57:48.048Z,4.45
2023-02-05T02:00:50.206Z,5.70
2023-02-05T02:03:57.484Z,4.65
2023-02-05T02:07:02.434Z,6.22
2023-02-05T02:10:05.618Z,4.67
2023-02-05T02:13:08.074Z,3.67
2023-02-05T02:16:10.388Z,3.80
2023-02-05T02:19:22.609Z,3.50
2023-02-05T02:22:33.889Z,4.60
2023-02-05T02:25:54.224Z,3.90
2023-02-05T02:29:04.080Z,5.00
2023-02-05T02:32:18.596Z,6.18
2023-02-05T02:35:30.362Z,4.97
2023-02-05T02:39:02.084Z,4.07
2023-02-05T02:42:10.535Z,3.33
2023-02-05T02:45:14.655Z,3.13
2023-02-05T02:48:19.518Z,3.03
2023-02-05T02:51:25.422Z,2.28
2023-02-05T02:54:28.567Z,5.78
2023-02-05T02:57:30.523Z,2.50
2023-02-05T03:00:33.112Z,2.75
2023-02-05T03:03:41.017Z,2.88
2023-02-05T03:06:48.131Z,4.93
2023-02-05T03:10:00.650Z,2.25
2023-02-05T03:13:02.968Z,2.00
2023-02-05T03:16:06.035Z,4.32
2023-02-05T03:19:08.862Z,9.45
2023-02-05T03:22:11.202Z,4.25
2023-02-05T03:25:13.456Z,3.72
2023-02-05T03:28:17.212Z,3.70
2023-02-05T03:31:25.465Z,6.05
2023-02-05T03:34:36.158Z,4.05
2023-02-05T03:37:59.957Z,5.40
2023-02-05T03:41:58.075Z,9.07
2023-02-05T03:45:09.616Z,5.70
2023-02-05T03:48:32.780Z,4.95
2023-02-05T03:51:49.910Z,5.97
2023-02-05T03:55:11.093Z,4.82
2023-02-05T03:58:24.114Z,2.80
2023-02-05T04:01:26.476Z,4.67
2023-02-05T04:04:28.587Z,4.65
2023-02-05T04:07:32.085Z,3.45
2023-02-05T04:10:35.623Z,4.10
2023-02-05T04:13:38.415Z,3.88
2023-02-05T04:16:42.763Z,1.87
2023-02-05T04:19:44.840Z,4.97
2023-02-05T04:22:49.334Z,4.70
2023-02-05T04:25:55.957Z,2.90
2023-02-05T04:29:05.904Z,2.72
2023-02-05T04:32:13.247Z,2.57
2023-02-05T04:35:15.299Z,3.95
2023-02-05T04:38:17.273Z,3.42
2023-02-05T04:41:19.168Z,2.67
2023-02-05T04:44:21.270Z,1.27
2023-02-05T04:47:23.182Z,3.17
2023-02-05T04:50:25.126Z,6.47
2023-02-05T04:53:27.050Z,3.58
2023-02-05T04:56:28.835Z,2.70
2023-02-05T04:59:31.670Z,3.03
2023-02-05T05:02:33.517Z,3.07
2023-02-05T05:05:36.391Z,1.65
2023-02-05T05:08:38.720Z,1.65
2023-02-05T05:11:40.659Z,1.83
2023-02-05T05:14:42.843Z,3.10
2023-02-05T05:17:44.674Z,2.90
2023-02-05T05:20:46.567Z,2.08
2023-02-05T05:23:48.488Z,0.93
2023-02-05T05:26:50.357Z,2.78
2023-02-05T05:29:52.463Z,2.67
2023-02-05T05:32:54.611Z,3.00
2023-02-05T05:35:56.430Z,2.92
2023-02-05T05:39:18.411Z,4.18
2023-02-05T05:42:38.775Z,1.92
2023-02-05T05:45:40.617Z,2.35
2023-02-05T05:48:42.666Z,5.73
2023-02-05T05:51:44.594Z,3.75
2023-02-05T05:54:46.930Z,3.42
2023-02-05T05:57:48.758Z,2.70
2023-02-05T06:01:06.041Z,4.20
2023-02-05T06:04:07.961Z,3.87
2023-02-05T06:07:09.793Z,3.20
2023-02-05T06:10:12.580Z,3.72
2023-02-05T06:13:14.690Z,6.93
2023-02-05T06:16:16.700Z,15.05
2023-02-05T06:19:19.898Z,79.67
2023-02-05T06:22:21.847Z,46.88
2023-02-05T06:25:23.702Z,28.30
2023-02-05T06:28:25.668Z,9.90
2023-02-05T06:31:27.628Z,8.50
2023-02-05T06:34:29.609Z,7.83
2023-02-05T06:37:46.923Z,7.05
2023-02-05T06:40:49.734Z,9.85
2023-02-05T06:43:51.822Z,8.00
2023-02-05T06:46:53.698Z,6.90
2023-02-05T06:49:55.702Z,3.90
2023-02-05T06:52:57.824Z,2.83
2023-02-05T06:55:59.723Z,4.10
2023-02-05T06:59:01.714Z,10.55
2023-02-05T07:02:04.188Z,6.15
2023-02-05T07:05:06.690Z,7.80
2023-02-05T07:08:08.664Z,39.08
2023-02-05T07:11:10.542Z,65.07
2023-02-05T07:14:12.488Z,63.65
2023-02-05T07:17:14.423Z,53.13
2023-02-05T07:20:18.892Z,7.33
2023-02-05T07:23:20.770Z,9.43
2023-02-05T07:26:23.866Z,5.70
2023-02-05T07:29:26.124Z,9.25
2023-02-05T07:32:28.150Z,5.47
2023-02-05T07:35:31.535Z,3.77
2023-02-05T07:38:34.568Z,9.82
2023-02-05T07:41:36.491Z,3.83
2023-02-05T07:44:47.415Z,18.27
2023-02-05T07:47:53.922Z,17.35
2023-02-05T07:50:55.861Z,8.77
2023-02-05T07:53:57.798Z,7.75
2023-02-05T07:57:00.509Z,10.77
2023-02-05T08:00:04.511Z,4.70
2023-02-05T08:03:15.302Z,14.02
2023-02-05T08:06:17.421Z,10.20
2023-02-05T08:09:19.401Z,11.25
2023-02-05T08:12:21.274Z,10.70
2023-02-05T08:15:23.237Z,27.13
2023-02-05T08:18:25.628Z,17.48
2023-02-05T08:21:27.587Z,27.47
2023-02-05T08:24:31.846Z,17.13
2023-02-05T08:27:36.162Z,36.03
2023-02-05T08:30:39.184Z,25.17
2023-02-05T08:33:41.220Z,6.18
2023-02-05T08:36:43.080Z,10.17
2023-02-05T08:39:46.365Z,8.82
2023-02-05T08:42:52.574Z,9.75
2023-02-05T08:45:54.622Z,8.38
2023-02-05T08:48:56.567Z,10.57
2023-02-05T08:51:58.485Z,5.47
2023-02-05T08:55:00.491Z,5.10
2023-02-05T08:58:02.414Z,7.57
2023-02-05T09:01:07.230Z,6.65
2023-02-05T09:04:20.157Z,8.20
2023-02-05T09:07:22.089Z,6.57
2023-02-05T09:10:24.337Z,8.10
2023-02-05T09:13:26.464Z,6.50
2023-02-05T09:16:28.473Z,5.35
2023-02-05T09:19:33.076Z,8.20
2023-02-05T09:22:35.320Z,15.73
2023-02-05T09:25:39.444Z,10.90
2023-02-05T09:28:41.846Z,10.65
2023-02-05T09:31:43.789Z,9.45
2023-02-05T09:34:45.993Z,12.15
2023-02-05T09:37:47.838Z,14.73
2023-02-05T09:40:50.014Z,8.32
2023-02-05T09:44:15.954Z,6.78
2023-02-05T09:47:32.952Z,6.07
2023-02-05T09:50:35.249Z,7.25
2023-02-05T09:53:42.831Z,7.97
2023-02-05T09:56:46.854Z,11.20
2023-02-05T09:59:48.869Z,5.43
2023-02-05T10:03:16.142Z,5.53
2023-02-05T10:06:25.268Z,4.07
2023-02-05T10:09:52.302Z,3.33
2023-02-05T10:13:06.451Z,5.07
2023-02-05T10:16:57.798Z,4.82
2023-02-05T10:20:18.261Z,5.38
2023-02-05T10:23:41.222Z,5.63
2023-02-05T10:26:51.910Z,3.60
2023-02-05T10:30:20.725Z,3.42
2023-02-05T10:33:50.227Z,3.45
2023-02-05T10:36:53.910Z,3.97
2023-02-05T10:39:57.725Z,5.25
2023-02-05T10:43:17.834Z,3.67
2023-02-05T10:46:20.136Z,1.42
2023-02-05T10:49:45.149Z,3.65
2023-02-05T10:52:47.094Z,3.78
2023-02-05T10:55:49.826Z,2.85
2023-02-05T10:59:02.339Z,4.20
2023-02-05T11:02:08.532Z,3.15
2023-02-05T11:05:30.443Z,3.50
2023-02-05T11:08:41.873Z,2.13
2023-02-05T11:11:44.398Z,2.03
2023-02-05T11:14:55.183Z,3.57
2023-02-05T11:18:00.621Z,3.30
2023-02-05T11:21:04.881Z,4.53
2023-02-05T11:24:19.845Z,7.88
2023-02-05T11:27:27.968Z,5.15
2023-02-05T11:34:07.899Z,4.70
2023-02-05T11:37:17.189Z,11.00
2023-02-05T11:40:31.161Z,3.83
2023-02-05T11:43:49.552Z,11.50
2023-02-05T11:46:57.519Z,6.03
2023-02-05T11:50:00.127Z,10.80
2023-02-05T11:53:09.433Z,9.95
2023-02-05T11:56:21.326Z,5.35
2023-02-05T11:59:24.109Z,8.73
2023-02-05T12:02:25.952Z,8.50
2023-02-05T12:05:42.442Z,7.10
2023-02-05T12:08:53.980Z,10.38
2023-02-05T12:12:18.659Z,9.82
2023-02-05T12:15:27.523Z,7.00
2023-02-05T12:18:44.858Z,4.40
2023-02-05T12:21:55.205Z,5.68
2023-02-05T12:25:10.600Z,8.98
2023-02-05T12:28:37.130Z,4.60
2023-02-05T12:31:59.810Z,11.80
2023-02-05T12:35:16.914Z,3.13
2023-02-05T12:38:42.464Z,3.70
2023-02-05T12:42:18.107Z,3.13
2023-02-05T12:45:39.664Z,3.83
2023-02-05T12:48:51.045Z,3.65
2023-02-05T12:52:01.859Z,7.30
2023-02-05T12:55:25.785Z,4.32
2023-02-05T12:58:38.596Z,11.75
2023-02-05T13:01:59.254Z,6.82
2023-02-05T13:05:34.726Z,6.68
2023-02-05T13:08:48.421Z,6.27
2023-02-05T13:12:02.138Z,3.55
2023-02-05T13:15:23.065Z,4.30
2023-02-05T13:18:32.934Z,7.00
2023-02-05T13:21:53.614Z,3.97
2023-02-05T13:25:27.343Z,10.60
2023-02-05T13:28:44.055Z,3.10
2023-02-05T13:31:55.204Z,7.25
2023-02-05T13:34:59.194Z,5.57
2023-02-05T13:38:17.417Z,4.53
2023-02-05T13:41:34.478Z,5.27
2023-02-05T13:45:03.943Z,3.60
2023-02-05T13:48:24.514Z,5.28
2023-02-05T13:51:43.141Z,4.18
2023-02-05T13:55:03.994Z,3.58
2023-02-05T13:58:12.215Z,5.57
2023-02-05T14:01:18.248Z,3.25
2023-02-05T14:04:26.637Z,3.42
2023-02-05T14:07:43.145Z,3.85
2023-02-05T14:10:45.950Z,5.15
2023-02-05T14:14:35.133Z,6.87
2023-02-05T14:17:37.049Z,4.45
2023-02-05T14:20:41.901Z,5.97
2023-02-05T14:23:46.774Z,4.75
2023-02-05T14:26:57.581Z,7.82
2023-02-05T14:30:29.626Z,4.23
2023-02-05T14:33:36.015Z,6.28
2023-02-05T14:36:39.838Z,6.72
2023-02-05T14:39:42.827Z,4.20
2023-02-05T14:42:44.949Z,3.70
2023-02-05T14:45:50.178Z,5.57
2023-02-05T14:48:57.058Z,4.32
2023-02-05T14:52:02.824Z,6.47
2023-02-05T14:55:29.073Z,5.10
2023-02-05T14:58:35.767Z,6.25
2023-02-05T15:01:37.801Z,5.73
2023-02-05T15:04:50.487Z,13.68
2023-02-05T15:08:07.285Z,6.15
2023-02-05T15:11:18.171Z,6.38
2023-02-05T15:14:24.487Z,7.07
2023-02-05T15:17:29.546Z,5.07
2023-02-05T15:20:36.356Z,5.45
2023-02-05T15:23:46.416Z,4.90
2023-02-05T15:27:02.758Z,7.75
2023-02-05T15:30:09.287Z,8.18
2023-02-05T15:33:27.465Z,9.37
2023-02-05T15:36:43.185Z,9.98
2023-02-05T15:39:50.668Z,7.65
2023-02-05T15:42:57.761Z,18.75
2023-02-05T15:46:04.096Z,6.90
2023-02-05T15:49:06.494Z,8.20
2023-02-05T15:52:15.581Z,11.48
2023-02-05T15:55:20.968Z,11.25
2023-02-05T15:58:26.108Z,9.27
2023-02-05T16:01:35.093Z,12.05
2023-02-05T16:04:39.044Z,12.20
2023-02-05T16:07:43.814Z,8.50
2023-02-05T16:10:58.028Z,16.70
2023-02-05T16:14:22.015Z,7.28
2023-02-05T16:17:32.998Z,9.65
2023-02-05T16:20:47.239Z,10.30
2023-02-05T16:23:57.095Z,6.70
2023-02-05T16:27:15.682Z,8.10
2023-02-05T16:30:31.482Z,11.23
2023-02-05T16:33:43.455Z,9.80
2023-02-05T16:36:48.400Z,7.03
2023-02-05T16:39:54.176Z,10.57
2023-02-05T16:42:56.498Z,9.68
2023-02-05T16:46:06.290Z,7.72
2023-02-05T16:49:29.376Z,5.07
2023-02-05T16:52:35.461Z,8.90
2023-02-05T16:55:42.908Z,5.45
2023-02-05T16:58:50.122Z,7.95
2023-02-05T17:01:53.382Z,8.57
2023-02-05T17:04:57.794Z,7.07
2023-02-05T17:08:12.289Z,16.43
2023-02-05T17:11:38.998Z,12.40
2023-02-05T17:14:53.538Z,8.52
2023-02-05T17:18:18.567Z,8.30
2023-02-05T17:21:24.342Z,11.32
2023-02-05T17:24:26.237Z,7.10
2023-02-05T17:27:35.698Z,11.50
2023-02-05T17:30:38.250Z,10.07
2023-02-05T17:33:40.566Z,8.10
2023-02-05T17:36:43.890Z,7.40
2023-02-05T17:39:46.146Z,7.40
2023-02-05T17:42:48.046Z,5.80
2023-02-05T17:45:50.247Z,11.10
2023-02-05T17:48:52.496Z,16.98
2023-02-05T17:51:54.602Z,8.77
2023-02-05T17:54:56.827Z,7.37
2023-02-05T17:57:59.166Z,10.13
2023-02-05T18:01:01.119Z,13.40
2023-02-05T18:04:03.308Z,19.88
2023-02-05T18:07:21.241Z,9.95
2023-02-05T18:10:34.199Z,21.20
2023-02-05T18:13:36.566Z,15.10
2023-02-05T18:16:39.045Z,8.30
2023-02-05T18:19:41.362Z,12.07
2023-02-05T18:22:43.605Z,5.28
2023-02-05T18:25:45.690Z,10.87
2023-02-05T18:28:48.077Z,13.65
2023-02-05T18:31:50.246Z,16.83
2023-02-05T18:34:53.135Z,12.50
2023-02-05T18:37:55.295Z,12.10
2023-02-05T18:41:05.451Z,9.53
2023-02-05T18:44:08.392Z,9.85
2023-02-05T18:47:11.416Z,14.95
2023-02-05T18:50:13.557Z,10.55
2023-02-05T18:53:16.183Z,7.20
2023-02-05T18:56:21.905Z,9.27
2023-02-05T18:59:25.779Z,9.70
2023-02-05T19:02:28.078Z,9.85
2023-02-05T19:05:30.348Z,9.27
2023-02-05T19:08:32.778Z,8.30
2023-02-05T19:11:40.766Z,7.97
2023-02-05T19:14:42.723Z,34.70
2023-02-05T19:17:44.811Z,47.20
2023-02-05T19:20:49.367Z,16.02
2023-02-05T19:23:53.813Z,14.43
2023-02-05T19:26:58.891Z,5.70
2023-02-05T19:30:01.009Z,11.48
2023-02-05T19:33:03.178Z,9.70
2023-02-05T19:36:07.282Z,7.22
2023-02-05T19:39:12.301Z,12.63
2023-02-05T19:42:14.719Z,8.30
2023-02-05T19:45:17.294Z,14.25
2023-02-05T19:48:19.411Z,13.82
2023-02-05T19:51:22.015Z,14.68
2023-02-05T19:54:24.206Z,20.00
2023-02-05T19:57:26.290Z,9.97
2023-02-05T20:00:28.450Z,10.15
2023-02-05T20:03:30.661Z,10.93
2023-02-05T20:06:32.718Z,12.07
2023-02-05T20:09:34.970Z,9.60
2023-02-05T20:12:37.139Z,8.77
2023-02-05T20:15:39.628Z,11.68
2023-02-05T20:18:43.310Z,10.38
2023-02-05T20:21:46.685Z,13.63
2023-02-05T20:24:49.018Z,29.00
2023-02-05T20:27:50.889Z,8.10
2023-02-05T20:31:12.639Z,17.85
2023-02-05T20:34:21.901Z,17.95
2023-02-05T20:37:24.160Z,6.47
2023-02-05T20:40:26.475Z,9.45
2023-02-05T20:43:28.567Z,15.47
2023-02-05T20:46:31.310Z,10.50
2023-02-05T20:49:40.060Z,16.17
2023-02-05T20:52:42.134Z,17.30
2023-02-05T20:55:44.326Z,15.05
2023-02-05T20:58:47.126Z,17.63
2023-02-05T21:01:49.309Z,20.50
2023-02-05T21:04:52.663Z,11.77
2023-02-05T21:07:55.014Z,14.40
2023-02-05T21:10:57.564Z,15.55
2023-02-05T21:13:59.830Z,22.00
2023-02-05T21:17:02.015Z,23.20
2023-02-05T21:20:04.955Z,33.83
2023-02-05T21:23:07.646Z,15.50
2023-02-05T21:26:20.909Z,20.33
2023-02-05T21:29:22.845Z,12.70
2023-02-05T21:32:25.045Z,18.85
2023-02-05T21:35:27.062Z,13.07
2023-02-05T21:38:31.605Z,12.40
2023-02-05T21:41:33.915Z,9.07
2023-02-05T21:44:35.902Z,6.73
2023-02-05T21:47:38.475Z,9.52
2023-02-05T21:50:40.902Z,11.13
2023-02-05T21:53:42.918Z,12.02
2023-02-05T21:56:44.831Z,18.05
2023-02-05T21:59:48.746Z,18.53
2023-02-05T22:02:50.806Z,13.88
2023-02-05T22:05:52.688Z,13.38
2023-02-05T22:08:56.209Z,15.73
2023-02-05T22:12:03.636Z,16.95
2023-02-05T22:15:05.846Z,14.00
2023-02-05T22:18:08.018Z,13.05
2023-02-05T22:21:24.123Z,4.78
2023-02-05T22:24:36.526Z,14.45
2023-02-05T22:27:38.510Z,20.95
2023-02-05T22:30:41.062Z,15.00
2023-02-05T22:33:45.244Z,14.98
2023-02-05T22:36:47.117Z,14.80
2023-02-05T22:39:49.442Z,13.20
2023-02-05T22:42:51.498Z,31.75
2023-02-05T22:45:53.541Z,18.17
2023-02-05T22:48:57.867Z,10.90
2023-02-05T22:51:59.828Z,12.82
2023-02-05T22:55:02.533Z,13.93
2023-02-05T22:58:05.270Z,20.17
2023-02-05T23:01:12.459Z,20.77
2023-02-05T23:04:14.389Z,14.13
2023-02-05T23:07:16.298Z,14.15
2023-02-05T23:10:20.066Z,12.30
2023-02-05T23:13:22.309Z,11.68
2023-02-05T23:16:27.243Z,12.50
2023-02-05T23:19:29.169Z,9.27
2023-02-05T23:22:31.359Z,11.32
2023-02-05T23:25:36.569Z,15.25
2023-02-05T23:28:38.877Z,15.27
2023-02-05T23:31:41.518Z,12.23
2023-02-05T23:34:44.268Z,13.98
2023-02-05T23:37:46.174Z,12.38
2023-02-05T23:40:48.110Z,11.25
2023-02-05T23:43:50.000Z,14.20
2023-02-05T23:46:52.122Z,10.03
2023-02-05T23:49:54.088Z,13.82
2023-02-05T23:52:55.991Z,11.43
2023-02-05T23:55:57.864Z,12.05
2023-02-05T23:59:00.274Z,17.67
